createdAt,value
2019-05-11T00:01:12.192Z,76.76
2019-05-11T00:03:39.239Z,76.66
2019-05-11T00:06:06.597Z,75.74
2019-05-11T00:08:33.647Z,76.78
2019-05-11T00:11:00.696Z,76.84
2019-05-11T00:13:27.663Z,76.88
2019-05-11T00:15:54.905Z,76.83
2019-05-11T00:18:22.274Z,77.10
2019-05-11T00:20:49.410Z,77.45
2019-05-11T00:23:16.578Z,77.18
2019-05-11T00:25:43.821Z,77.05
2019-05-11T00:28:11.097Z,77.09
2019-05-11T00:30:38.265Z,76.99
2019-05-11T00:33:05.485Z,76.46
2019-05-11T00:35:32.948Z,76.64
2019-05-11T00:38:00.208Z,76.92
2019-05-11T00:40:27.663Z,77.49
2019-05-11T00:42:54.921Z,78.56
2019-05-11T00:45:22.279Z,77.83
2019-05-11T00:47:49.535Z,77.51
2019-05-11T00:50:16.901Z,78.45
2019-05-11T00:52:44.296Z,78.52
2019-05-11T00:55:12.220Z,78.58
2019-05-11T00:57:39.282Z,78.49
2019-05-11T01:00:07.971Z,78.72
2019-05-11T01:02:35.523Z,78.36
2019-05-11T01:05:05.173Z,78.02
2019-05-11T01:07:33.314Z,77.25
2019-05-11T01:10:00.776Z,77.42
2019-05-11T01:12:28.136Z,77.67
2019-05-11T01:14:55.603Z,78.74
2019-05-11T01:17:22.949Z,79.11
2019-05-11T01:19:50.415Z,79.23
2019-05-11T01:22:17.563Z,79.19
2019-05-11T01:24:44.925Z,78.97
2019-05-11T01:27:14.446Z,78.45
2019-05-11T01:29:41.688Z,79.12
2019-05-11T01:32:09.253Z,80.13
2019-05-11T01:34:36.096Z,80.26
2019-05-11T01:37:03.758Z,80.38
2019-05-11T01:39:31.588Z,80.21
2019-05-11T01:41:58.801Z,79.98
2019-05-11T01:44:26.349Z,79.82
2019-05-11T01:46:54.019Z,80.14
2019-05-11T01:49:21.686Z,80.12
2019-05-11T01:51:48.690Z,80.31
2019-05-11T01:54:16.036Z,79.79
2019-05-11T01:56:43.763Z,79.92
2019-05-11T01:59:11.126Z,80.29
2019-05-11T02:01:38.355Z,79.69
2019-05-11T02:04:05.586Z,79.85
2019-05-11T02:06:33.270Z,79.52
2019-05-11T02:09:00.524Z,79.19
2019-05-11T02:11:28.270Z,78.98
2019-05-11T02:13:55.323Z,78.92
2019-05-11T02:16:22.851Z,78.97
2019-05-11T02:18:49.994Z,78.92
2019-05-11T02:21:19.194Z,78.90
2019-05-11T02:23:46.264Z,78.97
2019-05-11T02:26:13.622Z,79.10
2019-05-11T02:28:40.974Z,79.03
2019-05-11T02:31:08.811Z,78.70
2019-05-11T02:33:35.906Z,78.95
2019-05-11T02:36:04.145Z,78.80
2019-05-11T02:38:32.079Z,79.19
2019-05-11T02:40:59.755Z,79.40
2019-05-11T02:43:26.762Z,79.13
2019-05-11T02:45:54.690Z,79.00
2019-05-11T02:48:22.101Z,79.38
2019-05-11T02:50:49.612Z,78.99
2019-05-11T02:53:17.210Z,79.23
2019-05-11T02:55:46.054Z,78.96
2019-05-11T02:58:13.497Z,78.84
2019-05-11T03:00:44.719Z,78.97
2019-05-11T03:03:12.556Z,78.73
2019-05-11T03:05:39.650Z,78.12
2019-05-11T03:08:06.886Z,78.80
2019-05-11T03:10:34.248Z,78.50
2019-05-11T03:13:01.493Z,78.75
2019-05-11T03:15:29.249Z,78.71
2019-05-11T03:17:56.969Z,79.01
2019-05-11T03:20:23.983Z,78.86
2019-05-11T03:22:50.889Z,78.76
2019-05-11T03:25:18.031Z,78.76
2019-05-11T03:27:44.934Z,78.57
2019-05-11T03:30:12.637Z,78.51
2019-05-11T03:32:39.589Z,78.25
2019-05-11T03:35:06.669Z,78.34
2019-05-11T03:37:34.048Z,77.07
2019-05-11T03:40:01.182Z,78.04
2019-05-11T03:42:28.529Z,77.61
2019-05-11T03:44:55.795Z,77.76
2019-05-11T03:47:22.935Z,77.88
2019-05-11T03:49:49.951Z,78.87
2019-05-11T03:52:17.649Z,79.44
2019-05-11T03:54:44.548Z,78.67
2019-05-11T03:57:12.861Z,78.69
2019-05-11T03:59:40.000Z,78.92
2019-05-11T04:02:07.030Z,79.08
2019-05-11T04:04:33.851Z,79.79
2019-05-11T04:07:01.175Z,79.91
2019-05-11T04:09:28.092Z,80.36
2019-05-11T04:11:55.130Z,81.02
2019-05-11T04:14:22.651Z,81.60
2019-05-11T04:16:49.678Z,82.27
2019-05-11T04:19:17.874Z,82.50
2019-05-11T04:21:45.112Z,82.58
2019-05-11T04:24:12.366Z,82.98
2019-05-11T04:26:39.537Z,82.63
2019-05-11T04:29:06.439Z,82.73
2019-05-11T04:31:33.549Z,82.83
2019-05-11T04:34:00.467Z,82.41
2019-05-11T04:36:29.747Z,82.19
2019-05-11T04:38:56.868Z,81.59
2019-05-11T04:41:24.096Z,81.89
2019-05-11T04:43:50.884Z,82.06
2019-05-11T04:46:18.130Z,81.94
2019-05-11T04:48:45.812Z,81.64
2019-05-11T04:51:13.031Z,81.14
2019-05-11T04:53:40.032Z,81.49
2019-05-11T04:56:07.139Z,81.49
2019-05-11T04:58:34.290Z,80.95
2019-05-11T05:01:01.333Z,80.19
2019-05-11T05:03:40.420Z,79.74
2019-05-11T05:05:57.800Z,79.68
2019-05-11T05:08:26.378Z,79.90
2019-05-11T05:10:58.648Z,79.90
2019-05-11T05:13:28.695Z,79.87
2019-05-11T05:15:52.043Z,79.63
2019-05-11T05:18:20.985Z,79.89
2019-05-11T05:20:48.915Z,79.90
2019-05-11T05:23:15.995Z,79.39
2019-05-11T05:25:45.182Z,79.20
2019-05-11T05:28:12.116Z,78.89
2019-05-11T05:30:39.354Z,78.81
2019-05-11T05:33:06.386Z,78.78
2019-05-11T05:35:33.444Z,78.45
2019-05-11T05:38:03.541Z,78.67
2019-05-11T05:40:30.783Z,77.78
2019-05-11T05:42:57.732Z,77.22
2019-05-11T05:45:25.517Z,76.33
2019-05-11T05:47:52.711Z,76.45
2019-05-11T05:50:20.480Z,75.55
2019-05-11T05:52:48.544Z,73.89
2019-05-11T05:55:15.698Z,72.81
2019-05-11T05:57:42.999Z,72.01
2019-05-11T06:00:10.631Z,71.68
2019-05-11T06:02:37.872Z,70.48
2019-05-11T06:05:05.782Z,68.74
2019-05-11T06:07:33.104Z,68.55
2019-05-11T06:10:00.307Z,68.88
2019-05-11T06:12:27.410Z,68.20
2019-05-11T06:14:54.315Z,67.55
2019-05-11T06:17:21.605Z,67.83
2019-05-11T06:19:48.505Z,66.83
2019-05-11T06:22:15.743Z,66.52
2019-05-11T06:24:43.093Z,65.67
2019-05-11T06:27:10.707Z,64.75
2019-05-11T06:29:38.351Z,63.99
2019-05-11T06:32:05.606Z,62.51
2019-05-11T06:34:32.448Z,61.94
2019-05-11T06:36:59.451Z,61.02
2019-05-11T06:39:26.632Z,60.71
2019-05-11T06:41:53.631Z,60.23
2019-05-11T06:44:20.816Z,59.85
2019-05-11T06:46:47.718Z,59.21
2019-05-11T06:49:14.664Z,58.63
2019-05-11T06:51:42.584Z,59.35
2019-05-11T06:54:09.625Z,59.56
2019-05-11T06:56:37.720Z,57.89
2019-05-11T06:59:04.877Z,57.42
2019-05-11T07:01:31.763Z,57.09
2019-05-11T07:03:59.300Z,57.29
2019-05-11T07:06:30.356Z,56.37
2019-05-11T07:08:55.475Z,55.42
2019-05-11T07:11:22.519Z,55.13
2019-05-11T07:13:49.764Z,54.56
2019-05-11T07:16:17.403Z,55.03
2019-05-11T07:18:44.503Z,55.29
2019-05-11T07:21:13.122Z,54.75
2019-05-11T07:23:40.366Z,54.27
2019-05-11T07:26:07.402Z,54.24
2019-05-11T07:28:34.501Z,53.03
2019-05-11T07:31:01.451Z,52.71
2019-05-11T07:33:28.819Z,51.39
2019-05-11T07:35:58.122Z,51.69
2019-05-11T07:38:24.956Z,50.54
2019-05-11T07:40:52.175Z,50.86
2019-05-11T07:43:19.310Z,51.04
2019-05-11T07:45:48.006Z,50.83
2019-05-11T07:48:15.702Z,49.01
2019-05-11T07:50:43.355Z,49.70
2019-05-11T07:53:10.430Z,50.07
2019-05-11T07:55:38.508Z,49.22
2019-05-11T07:58:08.038Z,50.39
2019-05-11T08:00:37.414Z,51.10
2019-05-11T08:03:03.876Z,51.20
2019-05-11T08:05:31.243Z,51.20
2019-05-11T08:07:59.512Z,52.38
2019-05-11T08:10:28.149Z,52.39
2019-05-11T08:12:55.334Z,52.02
2019-05-11T08:15:22.255Z,52.74
2019-05-11T08:17:49.201Z,52.29
2019-05-11T08:20:18.496Z,53.32
2019-05-11T08:22:45.183Z,50.17
2019-05-11T08:25:12.474Z,51.67
2019-05-11T08:27:39.520Z,51.79
2019-05-11T08:30:10.930Z,51.24
2019-05-11T08:32:38.695Z,50.93
2019-05-11T08:35:08.549Z,51.03
2019-05-11T08:37:35.603Z,50.62
2019-05-11T08:40:04.792Z,50.37
2019-05-11T08:42:31.597Z,50.88
2019-05-11T08:45:15.256Z,51.09
2019-05-11T08:47:28.318Z,51.79
2019-05-11T08:49:55.622Z,48.39
2019-05-11T08:52:22.426Z,48.70
2019-05-11T08:54:49.586Z,47.95
2019-05-11T08:57:17.983Z,48.94
2019-05-11T08:59:45.110Z,49.10
2019-05-11T09:02:12.262Z,48.40
2019-05-11T09:04:41.925Z,47.83
2019-05-11T09:07:08.036Z,48.26
2019-05-11T09:09:35.242Z,48.01
2019-05-11T09:12:02.959Z,47.51
2019-05-11T09:14:29.874Z,47.35
2019-05-11T09:16:57.733Z,47.52
2019-05-11T09:19:28.234Z,46.59
2019-05-11T09:21:54.959Z,45.55
2019-05-11T09:24:22.031Z,45.69
2019-05-11T09:26:49.027Z,47.02
2019-05-11T09:29:17.970Z,46.10
2019-05-11T09:31:44.767Z,45.01
2019-05-11T09:34:11.816Z,45.72
2019-05-11T09:36:39.364Z,46.13
2019-05-11T09:39:08.443Z,45.28
2019-05-11T09:41:38.104Z,46.26
2019-05-11T09:44:04.915Z,44.94
2019-05-11T09:46:31.943Z,44.65
2019-05-11T09:48:59.239Z,44.26
2019-05-11T09:51:28.592Z,44.19
2019-05-11T09:53:55.358Z,45.89
2019-05-11T09:56:22.808Z,44.33
2019-05-11T09:58:49.598Z,44.50
2019-05-11T10:01:18.320Z,44.83
2019-05-11T10:03:47.922Z,45.50
2019-05-11T10:06:14.583Z,45.83
2019-05-11T10:08:41.688Z,44.56
2019-05-11T10:11:08.681Z,44.55
2019-05-11T10:13:35.575Z,43.15
2019-05-11T10:16:07.302Z,44.87
2019-05-11T10:18:32.316Z,45.80
2019-05-11T10:20:59.332Z,44.68
2019-05-11T10:23:27.887Z,45.04
2019-05-11T10:25:55.139Z,44.36
2019-05-11T10:28:22.054Z,43.80
2019-05-11T10:30:49.053Z,44.60
2019-05-11T10:33:18.641Z,44.67
2019-05-11T10:35:45.194Z,45.53
2019-05-11T10:38:12.235Z,45.04
2019-05-11T10:40:39.236Z,44.23
2019-05-11T10:43:07.947Z,41.74
2019-05-11T10:45:37.734Z,43.41
2019-05-11T10:48:04.333Z,44.25
2019-05-11T10:50:31.227Z,43.08
2019-05-11T10:52:59.151Z,41.70
2019-05-11T12:21:27.728Z,42.43
2019-05-11T12:23:55.330Z,43.96
2019-05-11T12:26:23.106Z,42.54
2019-05-11T12:28:50.214Z,42.78
2019-05-11T12:31:18.402Z,42.81
2019-05-11T12:33:48.309Z,43.54
2019-05-11T12:36:14.979Z,42.79
2019-05-11T12:38:41.992Z,43.27
2019-05-11T12:41:09.280Z,43.33
2019-05-11T12:43:38.189Z,42.85
2019-05-11T12:46:07.964Z,43.44
2019-05-11T12:48:35.025Z,42.66
2019-05-11T12:51:01.926Z,42.78
2019-05-11T12:53:29.191Z,42.50
2019-05-11T12:55:58.739Z,42.09
2019-05-11T12:58:25.101Z,43.45
2019-05-11T13:00:52.210Z,42.80
2019-05-11T13:03:19.415Z,42.50
2019-05-11T13:05:48.418Z,42.91
2019-05-11T13:08:15.691Z,43.32
2019-05-11T13:10:42.821Z,42.90
2019-05-11T13:13:09.825Z,43.68
2019-05-11T13:15:38.738Z,43.11
2019-05-11T13:18:08.178Z,42.93
2019-05-11T13:20:34.895Z,44.23
2019-05-11T13:23:01.916Z,43.90
2019-05-11T13:25:28.858Z,44.63
2019-05-11T13:27:58.137Z,44.47
2019-05-11T13:30:27.643Z,44.78
2019-05-11T13:32:54.115Z,43.66
2019-05-11T13:35:21.025Z,43.68
2019-05-11T13:37:48.325Z,44.17
2019-05-11T13:40:15.727Z,43.78
2019-05-11T13:42:44.727Z,43.82
2019-05-11T13:45:11.832Z,43.74
2019-05-11T13:47:51.673Z,44.32
2019-05-11T13:50:08.337Z,42.57
2019-05-11T13:52:35.723Z,43.68
2019-05-11T13:55:05.184Z,42.78
2019-05-11T13:57:32.608Z,42.49
2019-05-11T13:59:59.562Z,43.06
2019-05-11T14:02:28.530Z,41.85
2019-05-11T14:04:55.542Z,41.38
2019-05-11T14:07:22.747Z,42.45
2019-05-11T14:09:49.956Z,42.38
2019-05-11T14:12:18.220Z,42.50
2019-05-11T14:14:47.734Z,41.93
2019-05-11T14:17:14.353Z,41.67
2019-05-11T14:19:41.184Z,42.03
2019-05-11T14:22:08.791Z,42.44
2019-05-11T14:24:37.657Z,42.53
2019-05-11T14:27:04.855Z,42.37
2019-05-11T14:29:32.039Z,42.65
2019-05-11T14:31:59.246Z,42.30
2019-05-11T14:34:28.379Z,42.57
2019-05-11T14:36:58.103Z,42.13
2019-05-11T14:39:24.931Z,42.26
2019-05-11T14:41:52.121Z,42.92
2019-05-11T14:44:19.027Z,42.23
2019-05-11T14:46:47.781Z,42.49
2019-05-11T14:49:14.771Z,43.13
2019-05-11T14:51:41.811Z,42.35
2019-05-11T14:54:09.051Z,42.39
2019-05-11T14:56:38.100Z,42.48
2019-05-11T14:59:05.725Z,42.37
2019-05-11T15:01:32.526Z,42.17
2019-05-11T15:03:59.590Z,42.57
2019-05-11T15:06:27.969Z,42.55
2019-05-11T15:08:55.145Z,42.76
2019-05-11T15:11:22.631Z,41.62
2019-05-11T15:13:49.714Z,42.35
2019-05-11T15:16:18.756Z,42.08
2019-05-11T15:18:48.238Z,41.72
2019-05-11T15:21:14.651Z,42.07
2019-05-11T15:23:42.679Z,42.34
2019-05-11T15:26:10.158Z,41.84
2019-05-11T15:28:37.959Z,42.26
2019-05-11T15:31:07.859Z,41.46
2019-05-11T15:33:34.772Z,41.95
2019-05-11T15:36:02.100Z,42.53
2019-05-11T15:38:28.937Z,42.36
2019-05-11T15:40:57.945Z,42.24
2019-05-11T15:43:25.128Z,42.15
2019-05-11T15:45:52.035Z,42.41
2019-05-11T15:48:19.174Z,42.47
2019-05-11T15:50:48.421Z,42.60
2019-05-11T15:53:17.670Z,42.10
2019-05-11T15:55:44.307Z,42.18
2019-05-11T15:58:11.543Z,42.20
2019-05-11T16:00:40.015Z,43.59
2019-05-11T16:03:08.240Z,43.77
2019-05-11T16:05:35.495Z,43.58
2019-05-11T16:08:02.563Z,43.79
2019-05-11T16:10:29.465Z,43.93
2019-05-11T16:12:58.532Z,42.81
2019-05-11T16:15:27.686Z,43.30
2019-05-11T16:17:55.118Z,45.06
2019-05-11T16:20:22.062Z,45.63
2019-05-11T16:22:49.265Z,45.26
2019-05-11T16:25:19.234Z,44.56
2019-05-11T16:27:45.628Z,44.14
2019-05-11T16:30:13.547Z,45.70
2019-05-11T16:32:40.571Z,45.49
2019-05-11T16:35:08.963Z,44.46
2019-05-11T16:37:38.022Z,44.28
2019-05-11T16:40:06.567Z,43.78
2019-05-11T16:42:33.635Z,44.17
2019-05-11T16:45:00.458Z,43.92
2019-05-11T16:47:28.478Z,43.57
2019-05-11T16:49:57.852Z,43.30
2019-05-11T16:52:25.178Z,43.44
2019-05-11T16:54:52.339Z,44.12
2019-05-11T16:57:19.267Z,44.13
2019-05-11T16:59:47.904Z,45.14
2019-05-11T17:02:15.063Z,44.55
2019-05-11T17:04:41.858Z,44.44
2019-05-11T17:07:09.124Z,44.89
2019-05-11T17:09:37.798Z,45.20
2019-05-11T17:12:05.863Z,45.07
2019-05-11T17:14:32.781Z,45.42
2019-05-11T17:16:59.999Z,45.79
2019-05-11T17:19:42.247Z,45.53
2019-05-11T17:21:56.016Z,45.77
2019-05-11T17:24:23.220Z,45.73
2019-05-11T17:26:50.650Z,45.92
2019-05-11T17:29:18.583Z,46.09
2019-05-11T17:31:45.663Z,46.38
2019-05-11T17:34:12.964Z,46.63
2019-05-11T17:36:40.101Z,46.82
2019-05-11T17:39:07.501Z,46.77
2019-05-11T17:41:34.855Z,46.97
2019-05-11T17:44:02.921Z,46.92
2019-05-11T17:46:29.755Z,47.31
2019-05-11T17:48:56.901Z,47.90
2019-05-11T17:51:25.168Z,47.16
2019-05-11T17:53:52.292Z,47.50
2019-05-11T17:56:19.449Z,47.50
2019-05-11T17:58:48.365Z,47.13
2019-05-11T18:01:15.647Z,47.51
2019-05-11T18:03:42.542Z,46.39
2019-05-11T18:06:09.533Z,46.97
2019-05-11T18:08:36.759Z,46.28
2019-05-11T18:11:03.870Z,47.15
2019-05-11T18:13:30.919Z,47.79
2019-05-11T18:15:58.033Z,47.49
2019-05-11T18:18:25.675Z,47.61
2019-05-11T18:20:52.775Z,47.66
2019-05-11T18:23:19.616Z,48.04
2019-05-11T18:25:47.982Z,48.12
2019-05-11T18:28:15.088Z,48.03
2019-05-11T18:30:42.229Z,48.38
2019-05-11T18:33:09.131Z,48.55
2019-05-11T18:35:36.271Z,48.50
2019-05-11T18:38:03.695Z,48.48
2019-05-11T18:40:30.736Z,48.55
2019-05-11T18:42:57.899Z,48.78
2019-05-11T18:45:25.077Z,48.79
2019-05-11T18:47:52.227Z,48.70
2019-05-11T18:50:29.775Z,48.65
2019-05-11T18:52:49.072Z,48.95
2019-05-11T18:55:18.899Z,49.11
2019-05-11T18:57:48.730Z,49.01
2019-05-11T19:00:18.251Z,49.34
2019-05-11T19:02:44.646Z,49.57
2019-05-11T19:05:11.708Z,49.82
2019-05-11T19:07:38.867Z,49.84
2019-05-11T19:10:08.430Z,50.04
2019-05-11T19:12:37.702Z,50.01
2019-05-11T19:15:08.460Z,50.17
2019-05-11T19:17:38.266Z,50.27
2019-05-11T19:20:08.416Z,50.77
2019-05-11T19:22:37.058Z,51.02
2019-05-11T19:25:08.748Z,51.01
2019-05-11T19:27:35.439Z,51.10
2019-05-11T19:30:07.988Z,51.20
2019-05-11T19:32:35.051Z,51.31
2019-05-11T19:35:03.369Z,52.20
2019-05-11T19:37:30.395Z,52.15
2019-05-11T19:39:58.031Z,52.05
2019-05-11T19:42:25.410Z,52.56
2019-05-11T19:44:52.407Z,52.40
2019-05-11T19:47:19.349Z,52.37
2019-05-11T19:49:47.913Z,52.69
2019-05-11T19:52:14.974Z,52.90
2019-05-11T19:54:42.604Z,53.06
2019-05-11T19:57:09.830Z,53.53
2019-05-11T19:59:38.746Z,53.39
2019-05-11T20:02:08.461Z,53.63
2019-05-11T20:04:35.299Z,53.84
2019-05-11T20:07:02.618Z,54.05
2019-05-11T20:09:29.714Z,53.81
2019-05-11T20:11:58.233Z,54.45
2019-05-11T20:14:25.240Z,54.31
2019-05-11T20:16:52.135Z,54.46
2019-05-11T20:19:19.402Z,54.35
2019-05-11T20:21:48.442Z,53.96
2019-05-11T20:24:15.435Z,53.87
2019-05-11T20:26:42.846Z,53.75
2019-05-11T20:29:09.960Z,53.99
2019-05-11T20:31:37.171Z,54.26
2019-05-11T20:34:04.661Z,54.67
2019-05-11T20:36:31.708Z,55.28
2019-05-11T20:38:58.604Z,55.67
2019-05-11T20:41:27.805Z,56.10
2019-05-11T20:43:54.353Z,56.19
2019-05-11T20:46:21.496Z,55.99
2019-05-11T20:48:48.582Z,56.26
2019-05-11T20:51:29.726Z,56.48
2019-05-11T20:53:46.923Z,56.46
2019-05-11T20:56:14.675Z,56.68
2019-05-11T20:58:54.392Z,56.61
2019-05-11T21:01:23.555Z,56.41
2019-05-11T21:03:50.587Z,56.45
2019-05-11T21:06:18.465Z,56.62
2019-05-11T21:08:48.057Z,56.58
2019-05-11T21:11:14.871Z,56.62
2019-05-11T21:13:41.910Z,56.68
2019-05-11T21:16:09.092Z,56.88
2019-05-11T21:18:38.126Z,57.49
2019-05-11T21:21:05.491Z,58.03
2019-05-11T21:23:32.590Z,58.51
2019-05-11T21:25:59.495Z,58.47
2019-05-11T21:28:30.417Z,58.60
2019-05-11T21:30:55.329Z,58.63
2019-05-11T21:33:22.270Z,58.84
2019-05-11T21:35:49.393Z,59.04
2019-05-11T21:38:17.703Z,59.24
2019-05-11T21:40:44.903Z,59.39
2019-05-11T21:43:11.998Z,59.05
2019-05-11T21:45:40.780Z,59.79
2019-05-11T21:48:08.151Z,59.47
2019-05-11T21:50:37.005Z,59.34
2019-05-11T21:53:04.067Z,59.08
2019-05-11T21:55:31.595Z,59.14
2019-05-11T21:57:58.492Z,59.61
2019-05-11T22:00:28.145Z,59.74
2019-05-11T22:02:55.739Z,60.11
2019-05-11T22:05:22.885Z,60.28
2019-05-11T22:07:49.811Z,60.67
2019-05-11T22:10:17.897Z,60.48
2019-05-11T22:12:45.095Z,60.47
2019-05-11T22:15:12.591Z,60.37
2019-05-11T22:17:44.158Z,60.20
2019-05-11T22:20:13.436Z,60.13
2019-05-11T22:22:40.560Z,60.48
2019-05-11T22:25:08.271Z,60.57
2019-05-11T22:27:38.394Z,60.32
2019-05-11T22:30:08.327Z,60.08
2019-05-11T22:32:38.290Z,60.12
2019-05-11T22:35:12.355Z,60.43
2019-05-11T22:37:39.809Z,60.68
2019-05-11T22:40:08.373Z,60.99
2019-05-11T22:42:35.954Z,60.95
2019-05-11T22:45:08.125Z,60.91
2019-05-11T22:47:34.691Z,60.72
2019-05-11T22:50:05.098Z,60.88
2019-05-11T22:52:36.382Z,60.80
2019-05-11T22:55:01.803Z,60.84
2019-05-11T22:57:28.798Z,60.96
2019-05-11T22:59:55.960Z,60.96
2019-05-11T23:02:24.733Z,61.07
2019-05-11T23:04:51.881Z,61.42
2019-05-11T23:07:18.676Z,61.57
2019-05-11T23:09:46.118Z,61.75
2019-05-11T23:12:13.585Z,61.59
2019-05-11T23:14:40.649Z,61.69
2019-05-11T23:17:08.173Z,61.74
2019-05-11T23:19:35.276Z,61.98
2019-05-11T23:22:05.387Z,62.15
2019-05-11T23:24:31.960Z,62.11
2019-05-11T23:26:59.063Z,62.27
2019-05-11T23:29:27.909Z,62.45
2019-05-11T23:31:55.368Z,63.03
2019-05-11T23:34:22.407Z,63.39
2019-05-11T23:36:49.607Z,63.26
2019-05-11T23:39:17.871Z,63.36
2019-05-11T23:41:45.238Z,63.44
2019-05-11T23:44:12.260Z,63.62
2019-05-11T23:46:39.294Z,63.76
2019-05-11T23:49:08.844Z,63.70
2019-05-11T23:51:35.793Z,63.95
2019-05-11T23:54:02.921Z,63.98
2019-05-11T23:56:30.536Z,64.47
2019-05-11T23:58:57.955Z,63.98
